Time;durP1;ratioP1;P1;durP2;ratioP2;P2;SDS_P1;SDS_P2;PMS_P1;PMS_P2;Temp;Humidity;BMP_temperature;BMP_pressure;BME280_temperature;BME280_humidity;BME280_pressure;Samples;Min_cycle;Max_cycle;Signal;HPM_P1;HPM_P2
2023/08/29 00:01:52;;;;;;;;;;;;;;;-140.72;100.00;52754.09;6275767;22;19916;-68
2023/08/29 00:04:17;;;;;;;;;;;;;;;-140.72;100.00;52774.38;6274550;22;19994;-68
2023/08/29 00:06:42;;;;;;;;;;;;;;;-140.72;100.00;52772.34;6275768;22;19919;-68
2023/08/29 00:09:08;;;;;;;;;;;;;;;-140.72;100.00;52756.13;6274913;22;19918;-68
2023/08/29 00:11:33;;;;;;;;;;;;;;;-140.72;100.00;52743.94;6274185;22;19949;-68
2023/08/29 00:13:59;;;;;;;;;;;;;;;-140.72;100.00;52756.13;6273954;22;20248;-68
2023/08/29 00:16:24;;;;;;;;;;;;;;;-140.72;100.00;52774.38;6272806;22;19915;-69
2023/08/29 00:18:49;;;;;;;;;;;;;;;-140.72;100.00;52774.38;6276425;22;19911;-68
2023/08/29 00:21:15;;;;;;;;;;;;;;;-140.72;100.00;52764.25;6275304;22;19911;-68
2023/08/29 00:23:40;;;;;;;;;;;;;;;-140.72;100.00;52788.59;6274112;22;19911;-68
2023/08/29 00:26:05;;;;;;;;;;;;;;;-140.72;100.00;52780.47;6275329;22;19918;-68
2023/08/29 00:28:31;;;;;;;;;;;;;;;-140.72;100.00;52780.47;6275221;22;19911;-68
2023/08/29 00:30:56;;;;;;;;;;;;;;;-140.72;100.00;52800.75;6273701;22;19919;-68
2023/08/29 00:33:21;;;;;;;;;;;;;;;-140.72;100.00;52760.19;6275075;22;20249;-68
2023/08/29 00:35:47;;;;;;;;;;;;;;;-140.72;100.00;52772.34;6275547;22;20288;-68
2023/08/29 00:38:14;;;;;;;;;;;;;;;-140.72;100.00;52792.66;6274871;22;20145;-68
2023/08/29 00:40:40;;;;;;;;;;;;;;;-140.72;100.00;52756.13;6275797;22;19980;-68
2023/08/29 00:43:05;;;;;;;;;;;;;;;-140.72;100.00;52764.25;6275818;22;20278;-68
2023/08/29 00:45:32;;;;;;;;;;;;;;;-140.72;100.00;52731.75;6298782;22;19919;-68
2023/08/29 00:47:57;;;;;;;;;;;;;;;-140.72;100.00;52760.19;6275367;22;19915;-68
2023/08/29 00:50:23;;;;;;;;;;;;;;;-140.72;100.00;52776.41;6275657;22;20004;-68
2023/08/29 00:52:49;;;;;;;;;;;;;;;-140.72;100.00;52772.34;6275607;22;20236;-67
2023/08/29 00:55:15;;;;;;;;;;;;;;;-140.72;100.00;52780.47;6277354;22;19990;-67
2023/08/29 00:57:40;;;;;;;;;;;;;;;-140.72;100.00;52792.66;6276128;22;19918;-67
2023/08/29 01:00:06;;;;;;;;;;;;;;;-140.72;100.00;52768.28;6278967;22;19948;-67
2023/08/29 01:02:31;;;;;;;;;;;;;;;-140.72;100.00;52772.34;6303209;22;19911;-68
2023/08/29 01:04:57;;;;;;;;;;;;;;;-140.72;100.00;52776.41;6277296;22;19919;-67
2023/08/29 01:07:23;;;;;;;;;;;;;;;-140.72;100.00;52800.75;6279456;22;19911;-67
2023/08/29 01:09:48;;;;;;;;;;;;;;;-140.72;100.00;52782.50;6302808;22;19961;-66
2023/08/29 01:12:18;;;;;;;;;;;;;;;-140.72;100.00;52772.34;6303113;22;20288;-67
2023/08/29 01:14:50;;;;;;;;;;;;;;;-140.72;100.00;52780.47;6277174;22;20244;-67
2023/08/29 01:17:30;;;;;;;;;;;;;;;-140.72;100.00;52812.94;6276839;22;20391;-68
2023/08/29 01:19:56;;;;;;;;;;;;;;;-140.72;100.00;52774.38;6276905;22;19912;-68
2023/08/29 01:22:24;;;;;;;;;;;;;;;-140.72;100.00;52776.41;6275877;22;19911;-68
2023/08/29 01:24:53;;;;;;;;;;;;;;;-140.72;100.00;52754.09;6275539;22;19943;-67
2023/08/29 01:27:19;;;;;;;;;;;;;;;-140.72;100.00;52810.91;6277646;22;19911;-67
2023/08/29 01:29:46;;;;;;;;;;;;;;;-140.72;100.00;52800.75;6278065;22;19918;-67
2023/08/29 01:32:12;;;;;;;;;;;;;;;-140.72;100.00;52756.13;6278095;22;20010;-67
2023/08/29 01:34:38;;;;;;;;;;;;;;;-140.72;100.00;52760.19;6300196;22;19915;-68
2023/08/29 01:37:03;;;;;;;;;;;;;;;-140.72;100.00;52766.25;6278104;22;20255;-68
2023/08/29 01:39:29;;;;;;;;;;;;;;;-140.72;100.00;52835.25;6300956;22;19919;-68
2023/08/29 01:41:54;;;;;;;;;;;;;;;-140.72;100.00;52770.31;6277060;22;19994;-68
2023/08/29 01:44:19;;;;;;;;;;;;;;;-140.72;100.00;52745.97;6278162;22;19942;-68
2023/08/29 01:46:44;;;;;;;;;;;;;;;-140.72;100.00;52800.75;6278448;22;19919;-68
2023/08/29 01:49:10;;;;;;;;;;;;;;;-140.72;100.00;52800.75;6278531;22;19915;-68
2023/08/29 01:51:35;;;;;;;;;;;;;;;-140.72;100.00;52800.75;6278662;22;19911;-68
2023/08/29 01:54:01;;;;;;;;;;;;;;;-140.72;100.00;52800.75;6276538;22;19928;-68
2023/08/29 01:56:28;;;;;;;;;;;;;;;-140.72;100.00;52802.78;6278750;22;19943;-68
2023/08/29 01:58:54;;;;;;;;;;;;;;;-140.72;100.00;52782.50;6278059;22;19911;-69
2023/08/29 02:01:20;;;;;;;;;;;;;;;-140.72;100.00;52792.66;6278489;22;20236;-67
2023/08/29 02:03:45;;;;;;;;;;;;;;;-140.72;100.00;52788.59;6276654;22;19911;-68
2023/08/29 02:06:13;;;;;;;;;;;;;;;-140.72;100.00;52808.88;6301075;22;19965;-68
2023/08/29 02:08:39;;;;;;;;;;;;;;;-140.72;100.00;52808.88;6278189;22;19911;-67
2023/08/29 02:11:08;;;;;;;;;;;;;;;-140.72;100.00;52788.59;6276158;22;19990;-68
2023/08/29 02:13:34;;;;;;;;;;;;;;;-140.72;100.00;52812.94;6278199;22;19911;-68
2023/08/29 02:16:02;;;;;;;;;;;;;;;-140.72;100.00;52821.06;6276942;22;19911;-68
2023/08/29 02:18:28;;;;;;;;;;;;;;;-140.72;100.00;52821.06;6278160;22;20279;-68
2023/08/29 02:20:53;;;;;;;;;;;;;;;-140.72;100.00;52837.28;6302864;22;19911;-68
2023/08/29 02:23:18;;;;;;;;;;;;;;;-140.72;100.00;52788.59;6302034;22;19918;-68
2023/08/29 02:25:44;;;;;;;;;;;;;;;-140.72;100.00;52812.94;6302074;22;19915;-68
2023/08/29 02:28:09;;;;;;;;;;;;;;;-140.72;100.00;52819.03;6276515;22;20252;-67
2023/08/29 02:30:35;;;;;;;;;;;;;;;-140.72;100.00;52794.69;6278833;22;19912;-68
2023/08/29 02:33:01;;;;;;;;;;;;;;;-140.72;100.00;52774.38;6278639;22;19919;-67
2023/08/29 02:35:26;;;;;;;;;;;;;;;-140.72;100.00;52792.66;6302053;22;19998;-67
2023/08/29 02:37:51;;;;;;;;;;;;;;;-140.72;100.00;52796.72;6278100;22;19915;-68
2023/08/29 02:40:17;;;;;;;;;;;;;;;-140.72;100.00;52827.16;6277894;22;19995;-68
2023/08/29 02:42:43;;;;;;;;;;;;;;;-140.72;100.00;52800.75;6276048;22;19956;-67
2023/08/29 02:45:09;;;;;;;;;;;;;;;-140.72;100.00;52780.47;6278067;22;19984;-68
2023/08/29 02:47:34;;;;;;;;;;;;;;;-140.72;100.00;52808.88;6277773;22;20323;-69
2023/08/29 02:49:59;;;;;;;;;;;;;;;-140.72;100.00;52808.88;6277824;22;19965;-68
2023/08/29 02:52:33;;;;;;;;;;;;;;;-140.72;100.00;52804.81;6277412;22;20247;-68
2023/08/29 02:54:58;;;;;;;;;;;;;;;-140.72;100.00;52806.84;6276201;22;19938;-68
2023/08/29 02:57:31;;;;;;;;;;;;;;;-140.72;100.00;52798.72;6278037;22;19911;-68
2023/08/29 02:59:57;;;;;;;;;;;;;;;-140.72;100.00;52798.72;6276091;22;19915;-68
2023/08/29 03:02:23;;;;;;;;;;;;;;;-140.72;100.00;52817.00;6277919;22;19919;-68
2023/08/29 03:04:48;;;;;;;;;;;;;;;-140.72;100.00;52800.75;6276435;22;20408;-68
2023/08/29 03:07:13;;;;;;;;;;;;;;;-140.72;100.00;52804.81;6277631;22;19912;-68
2023/08/29 03:09:39;;;;;;;;;;;;;;;-140.72;100.00;52808.88;6277236;22;20229;-68
2023/08/29 03:12:04;;;;;;;;;;;;;;;-140.72;100.00;52796.72;6278069;22;19911;-68
2023/08/29 03:14:29;;;;;;;;;;;;;;;-140.72;100.00;52800.75;6277508;22;19911;-68
2023/08/29 03:16:54;;;;;;;;;;;;;;;-140.72;100.00;52792.66;6274257;22;19931;-68
2023/08/29 03:19:20;;;;;;;;;;;;;;;-140.72;100.00;52817.00;6274543;22;19938;-68
2023/08/29 03:21:45;;;;;;;;;;;;;;;-140.72;100.00;52817.00;6300553;22;19911;-68
2023/08/29 03:24:10;;;;;;;;;;;;;;;-140.72;100.00;52772.34;6276772;22;19919;-68
2023/08/29 03:26:35;;;;;;;;;;;;;;;-140.72;100.00;52802.78;6276114;22;20058;-67
2023/08/29 03:29:01;;;;;;;;;;;;;;;-140.72;100.00;52810.91;6275991;22;19942;-67
2023/08/29 03:31:26;;;;;;;;;;;;;;;-140.72;100.00;52784.53;6300300;22;19915;-67
2023/08/29 03:33:51;;;;;;;;;;;;;;;-140.72;100.00;52784.53;6276379;22;19915;-67
2023/08/29 03:36:16;;;;;;;;;;;;;;;-140.72;100.00;52800.75;6275278;22;20336;-68
2023/08/29 03:38:42;;;;;;;;;;;;;;;-140.72;100.00;52800.75;6277396;22;19912;-67
2023/08/29 03:41:07;;;;;;;;;;;;;;;-140.72;100.00;52770.31;6275833;22;20235;-67
2023/08/29 03:43:33;;;;;;;;;;;;;;;-140.72;100.00;52823.09;6275576;22;19911;-67
2023/08/29 03:45:59;;;;;;;;;;;;;;;-140.72;100.00;52776.41;6277471;22;19989;-69
2023/08/29 03:48:25;;;;;;;;;;;;;;;-140.72;100.00;52774.38;6276102;22;19938;-68
2023/08/29 03:50:50;;;;;;;;;;;;;;;-140.72;100.00;52802.78;6275984;22;20374;-67
2023/08/29 03:53:16;;;;;;;;;;;;;;;-140.72;100.00;52758.16;6275661;22;19919;-68
2023/08/29 03:55:42;;;;;;;;;;;;;;;-140.72;100.00;52764.25;6275382;22;19919;-67
2023/08/29 03:58:07;;;;;;;;;;;;;;;-140.72;100.00;52810.91;6277209;22;19912;-68
2023/08/29 04:00:33;;;;;;;;;;;;;;;-140.72;100.00;52768.28;6277415;22;19917;-68
2023/08/29 04:02:59;;;;;;;;;;;;;;;-140.72;100.00;52808.88;6275721;22;19918;-68
2023/08/29 04:05:24;;;;;;;;;;;;;;;-140.72;100.00;52796.72;6275311;22;19911;-68
2023/08/29 04:07:50;;;;;;;;;;;;;;;-140.72;100.00;52829.19;6277131;22;20220;-68
2023/08/29 04:10:15;;;;;;;;;;;;;;;-140.72;100.00;52774.38;6276888;22;19911;-68
2023/08/29 04:12:41;;;;;;;;;;;;;;;-140.72;100.00;52780.47;6277514;22;19915;-68
2023/08/29 04:15:07;;;;;;;;;;;;;;;-140.72;100.00;52776.41;6301018;22;19919;-68
2023/08/29 04:17:32;;;;;;;;;;;;;;;-140.72;100.00;52792.66;6277756;22;19912;-69
2023/08/29 04:19:58;;;;;;;;;;;;;;;-140.72;100.00;52792.66;6275225;22;19960;-68
2023/08/29 04:22:23;;;;;;;;;;;;;;;-140.72;100.00;52772.34;6275862;22;19961;-69
2023/08/29 04:24:49;;;;;;;;;;;;;;;-140.72;100.00;52788.59;6277412;22;19915;-68
2023/08/29 04:27:14;;;;;;;;;;;;;;;-140.72;100.00;52792.66;6300056;22;20364;-68
2023/08/29 04:29:47;;;;;;;;;;;;;;;-140.72;100.00;52800.75;6275054;22;19997;-68
2023/08/29 04:32:12;;;;;;;;;;;;;;;-140.72;100.00;52812.94;6276223;22;20268;-68
2023/08/29 04:34:37;;;;;;;;;;;;;;;-140.72;100.00;52810.91;6276192;22;19915;-68
2023/08/29 04:37:04;;;;;;;;;;;;;;;-140.72;100.00;52756.13;6276614;22;19927;-68
2023/08/29 04:39:29;;;;;;;;;;;;;;;-140.72;100.00;52786.56;6300946;22;19911;-68
2023/08/29 04:41:54;;;;;;;;;;;;;;;-140.72;100.00;52800.75;6276721;22;19912;-68
2023/08/29 04:44:20;;;;;;;;;;;;;;;-140.72;100.00;52792.66;6275289;22;19911;-68
2023/08/29 04:46:45;;;;;;;;;;;;;;;-140.72;100.00;52798.72;6301396;22;19911;-67
2023/08/29 04:49:11;;;;;;;;;;;;;;;-140.72;100.00;52794.69;6276488;22;19915;-67
2023/08/29 04:51:36;;;;;;;;;;;;;;;-140.72;100.00;52802.78;6275792;22;20006;-68
2023/08/29 04:54:02;;;;;;;;;;;;;;;-140.72;100.00;52764.25;6274960;22;19911;-67
2023/08/29 04:56:27;;;;;;;;;;;;;;;-140.72;100.00;52796.72;6276757;22;20231;-67
2023/08/29 04:58:52;;;;;;;;;;;;;;;-140.72;100.00;52808.88;6276590;22;19915;-67
2023/08/29 05:01:17;;;;;;;;;;;;;;;-140.72;100.00;52772.34;6276760;22;20002;-69
2023/08/29 05:03:42;;;;;;;;;;;;;;;-140.72;100.00;52764.25;6275065;22;19912;-68
2023/08/29 05:06:08;;;;;;;;;;;;;;;-140.72;100.00;52808.88;6277083;22;19919;-68
2023/08/29 05:08:36;;;;;;;;;;;;;;;-140.72;100.00;52770.31;6276495;22;19915;-71
2023/08/29 05:11:01;;;;;;;;;;;;;;;-140.72;100.00;52764.25;6274129;22;19945;-68
2023/08/29 05:13:26;;;;;;;;;;;;;;;-140.72;100.00;52766.25;6272479;22;19919;-67
2023/08/29 05:16:03;;;;;;;;;;;;;;;-140.72;100.00;52770.31;6276119;22;19915;-67
2023/08/29 05:18:28;;;;;;;;;;;;;;;-140.72;100.00;52774.38;6274766;22;19976;-67
2023/08/29 05:21:02;;;;;;;;;;;;;;;-140.72;100.00;52796.72;6276132;22;19991;-67
2023/08/29 05:23:27;;;;;;;;;;;;;;;-140.72;100.00;52808.88;6275979;22;19915;-67
2023/08/29 05:25:53;;;;;;;;;;;;;;;-140.72;100.00;52778.44;6275964;22;19922;-67
2023/08/29 05:28:18;;;;;;;;;;;;;;;-140.72;100.00;52762.22;6276305;22;19965;-67
2023/08/29 05:30:44;;;;;;;;;;;;;;;-140.72;100.00;52776.41;6276205;22;20347;-67
2023/08/29 05:33:11;;;;;;;;;;;;;;;-140.72;100.00;52723.66;6276421;22;19947;-67
2023/08/29 05:35:36;;;;;;;;;;;;;;;-140.72;100.00;52762.22;6275835;22;19915;-67
2023/08/29 05:38:01;;;;;;;;;;;;;;;-140.72;100.00;52768.28;6274936;22;20347;-68
2023/08/29 05:40:26;;;;;;;;;;;;;;;-140.72;100.00;52748.00;6275090;22;19965;-69
2023/08/29 05:42:53;;;;;;;;;;;;;;;-140.72;100.00;52741.91;6276577;22;19961;-69
2023/08/29 05:45:18;;;;;;;;;;;;;;;-140.72;100.00;52735.81;6278330;22;19919;-70
2023/08/29 05:47:44;;;;;;;;;;;;;;;-140.72;100.00;52705.38;6278562;22;19915;-68
2023/08/29 05:50:09;;;;;;;;;;;;;;;-140.72;100.00;52768.28;6279461;22;19915;-73
2023/08/29 05:52:35;;;;;;;;;;;;;;;-140.72;100.00;52748.00;6279196;22;19918;-69
2023/08/29 05:55:00;;;;;;;;;;;;;;;-140.72;100.00;52733.78;6276745;22;20305;-69
2023/08/29 05:57:29;;;;;;;;;;;;;;;-140.72;100.00;52743.94;6277089;22;19915;-68
2023/08/29 05:59:55;;;;;;;;;;;;;;;-140.72;100.00;52715.53;6278711;22;19915;-68
2023/08/29 06:02:20;;;;;;;;;;;;;;;-140.72;100.00;52699.31;6278734;22;19993;-72
2023/08/29 06:04:46;;;;;;;;;;;;;;;-140.72;100.00;52756.13;6277757;22;19915;-69
2023/08/29 06:07:12;;;;;;;;;;;;;;;-140.72;100.00;52750.03;6275588;22;19947;-69
2023/08/29 06:09:37;;;;;;;;;;;;;;;-140.72;100.00;52739.88;6276277;22;19973;-68
2023/08/29 06:12:02;;;;;;;;;;;;;;;-140.72;100.00;52725.69;6300461;22;19922;-68
2023/08/29 06:14:28;;;;;;;;;;;;;;;-140.72;100.00;52715.53;6275970;22;19922;-67
2023/08/29 06:16:53;;;;;;;;;;;;;;;-140.72;100.00;52715.53;6278036;22;19911;-67
2023/08/29 06:19:18;;;;;;;;;;;;;;;-140.72;100.00;52723.66;6277357;22;20040;-67
2023/08/29 06:21:44;;;;;;;;;;;;;;;-140.72;100.00;52664.81;6276903;22;19915;-67
2023/08/29 06:24:09;;;;;;;;;;;;;;;-140.72;100.00;52727.72;6277645;22;19934;-67
2023/08/29 06:26:34;;;;;;;;;;;;;;;-140.72;100.00;52713.50;6275673;22;19915;-67
2023/08/29 06:28:59;;;;;;;;;;;;;;;-140.72;100.00;52697.28;6277154;22;19918;-68
2023/08/29 06:31:25;;;;;;;;;;;;;;;-140.72;100.00;52723.66;6276703;22;20303;-68
2023/08/29 06:33:50;;;;;;;;;;;;;;;-140.72;100.00;52695.25;6277370;22;19911;-68
2023/08/29 06:36:15;;;;;;;;;;;;;;;-140.72;100.00;52731.75;6276210;22;20275;-68
2023/08/29 06:38:42;;;;;;;;;;;;;;;-140.72;100.00;52723.66;6275779;22;20251;-68
2023/08/29 06:41:07;;;;;;;;;;;;;;;-140.72;100.00;52731.75;6275681;22;19981;-68
2023/08/29 06:43:32;;;;;;;;;;;;;;;-140.72;100.00;52707.41;6277129;22;20379;-68
2023/08/29 06:45:57;;;;;;;;;;;;;;;-140.72;100.00;52689.16;6277520;22;19911;-68
2023/08/29 06:48:22;;;;;;;;;;;;;;;-140.72;100.00;52687.13;6276992;22;20227;-70
2023/08/29 06:50:48;;;;;;;;;;;;;;;-140.72;100.00;52695.25;6276616;22;20346;-69
2023/08/29 06:53:13;;;;;;;;;;;;;;;-140.72;100.00;52691.19;6276705;22;19915;-69
2023/08/29 06:55:39;;;;;;;;;;;;;;;-140.72;100.00;52721.63;6300481;22;19915;-69
2023/08/29 06:58:04;;;;;;;;;;;;;;;-140.72;100.00;52699.31;6276164;22;19917;-69
2023/08/29 07:00:31;;;;;;;;;;;;;;;-140.72;100.00;52683.06;6276746;22;19918;-69
2023/08/29 07:02:56;;;;;;;;;;;;;;;-140.72;100.00;52652.63;6275676;22;19915;-68
2023/08/29 07:05:21;;;;;;;;;;;;;;;-140.72;100.00;52691.19;6276829;22;20239;-69
2023/08/29 07:07:47;;;;;;;;;;;;;;;-140.72;100.00;52699.31;6276156;22;20370;-68
2023/08/29 07:10:12;;;;;;;;;;;;;;;-140.72;100.00;52707.41;6275540;22;19914;-70
2023/08/29 07:12:37;;;;;;;;;;;;;;;-140.72;100.00;52715.53;6274806;22;20301;-69
2023/08/29 07:15:02;;;;;;;;;;;;;;;-140.72;100.00;52695.25;6275901;22;19912;-69
2023/08/29 07:17:28;;;;;;;;;;;;;;;-140.72;100.00;52715.53;6274626;22;19918;-69
2023/08/29 07:19:53;;;;;;;;;;;;;;;-140.72;100.00;52695.25;6277251;22;20348;-69
2023/08/29 07:22:19;;;;;;;;;;;;;;;-140.72;100.00;52717.56;6276444;22;19918;-68
2023/08/29 07:24:44;;;;;;;;;;;;;;;-140.72;100.00;52693.22;6274456;22;19918;-69
2023/08/29 07:27:09;;;;;;;;;;;;;;;-140.72;100.00;52737.84;6276042;22;19911;-68
2023/08/29 07:29:34;;;;;;;;;;;;;;;-140.72;100.00;52735.81;6274662;22;20006;-69
2023/08/29 07:32:00;;;;;;;;;;;;;;;-140.72;100.00;52719.59;6276654;22;20281;-69
2023/08/29 07:34:25;;;;;;;;;;;;;;;-140.72;100.00;52715.53;6274138;22;20348;-68
2023/08/29 07:36:50;;;;;;;;;;;;;;;-140.72;100.00;52709.44;6300868;22;19911;-69
2023/08/29 07:39:18;;;;;;;;;;;;;;;-140.72;100.00;52685.09;6274745;22;19998;-69
2023/08/29 07:41:44;;;;;;;;;;;;;;;-140.72;100.00;52670.88;6274526;22;19911;-69
2023/08/29 07:44:09;;;;;;;;;;;;;;;-140.72;100.00;52666.84;6274788;22;20288;-69
2023/08/29 07:46:35;;;;;;;;;;;;;;;-140.72;100.00;52683.06;6276272;22;19918;-69
2023/08/29 07:49:00;;;;;;;;;;;;;;;-140.72;100.00;52666.84;6300634;22;19915;-69
2023/08/29 07:51:26;;;;;;;;;;;;;;;-140.72;100.00;52654.66;6275271;22;19919;-68
2023/08/29 07:53:51;;;;;;;;;;;;;;;-140.72;100.00;52689.16;6275052;22;20387;-68
2023/08/29 07:56:16;;;;;;;;;;;;;;;-140.72;100.00;52670.88;6249989;22;19943;-68
2023/08/29 07:58:42;;;;;;;;;;;;;;;-140.72;100.00;52662.78;6276789;22;20279;-68
2023/08/29 08:01:07;;;;;;;;;;;;;;;-140.72;100.00;52650.59;6274331;22;20240;-68
2023/08/29 08:03:33;;;;;;;;;;;;;;;-140.72;100.00;52648.56;6274445;22;20021;-68
2023/08/29 08:05:58;;;;;;;;;;;;;;;-140.72;100.00;52646.53;6275125;22;20217;-69
2023/08/29 08:08:23;;;;;;;;;;;;;;;-140.72;100.00;52654.66;6274116;22;19911;-70
2023/08/29 08:10:48;;;;;;;;;;;;;;;-140.72;100.00;52597.84;6275005;22;20013;-69
2023/08/29 08:13:14;;;;;;;;;;;;;;;-140.72;100.00;52593.78;6275410;22;19915;-70
2023/08/29 08:15:39;;;;;;;;;;;;;;;-140.72;100.00;52626.25;6277092;22;19986;-71
2023/08/29 08:18:04;;;;;;;;;;;;;;;-140.72;100.00;52595.81;6300830;22;19918;-71
2023/08/29 08:20:29;;;;;;;;;;;;;;;-140.72;100.00;52581.59;6276550;22;20220;-71
2023/08/29 08:22:55;;;;;;;;;;;;;;;-140.72;100.00;52612.03;6273895;22;19911;-71
2023/08/29 08:25:20;;;;;;;;;;;;;;;-140.72;100.00;52563.34;6275506;22;19960;-69
2023/08/29 08:27:45;;;;;;;;;;;;;;;-140.72;100.00;52591.75;6299890;22;20324;-73
2023/08/29 08:30:10;;;;;;;;;;;;;;;-140.72;100.00;52587.69;6275814;22;20351;-68
2023/08/29 08:32:36;;;;;;;;;;;;;;;-140.72;100.00;52603.94;6273700;22;19919;-69
2023/08/29 08:35:04;;;;;;;;;;;;;;;-140.72;100.00;52593.78;6274321;22;19987;-69
2023/08/29 08:37:32;;;;;;;;;;;;;;;-140.72;100.00;52607.97;6300217;22;19911;-69
2023/08/29 08:39:57;;;;;;;;;;;;;;;-140.72;100.00;52620.16;6277288;22;19941;-69
2023/08/29 08:42:22;;;;;;;;;;;;;;;-140.72;100.00;52630.31;6276787;22;19911;-69
2023/08/29 08:44:48;;;;;;;;;;;;;;;-140.72;100.00;52636.38;6275466;22;19915;-69
2023/08/29 08:47:13;;;;;;;;;;;;;;;-140.72;100.00;52636.38;6275518;22;20251;-69
2023/08/29 08:49:39;;;;;;;;;;;;;;;-140.72;100.00;52581.59;6274615;22;19915;-69
2023/08/29 08:52:05;;;;;;;;;;;;;;;-140.72;100.00;52597.84;6275145;22;19918;-69
2023/08/29 08:54:30;;;;;;;;;;;;;;;-140.72;100.00;52591.75;6276400;22;19938;-69
2023/08/29 08:56:57;;;;;;;;;;;;;;;-140.72;100.00;52601.91;6277037;22;19912;-71
2023/08/29 08:59:24;;;;;;;;;;;;;;;-140.72;100.00;52626.25;6273573;22;19946;-69
2023/08/29 09:01:49;;;;;;;;;;;;;;;-140.72;100.00;52642.47;6271951;22;19919;-70
2023/08/29 09:04:15;;;;;;;;;;;;;;;-140.72;100.00;52585.66;6275009;22;19918;-69
2023/08/29 09:06:40;;;;;;;;;;;;;;;-140.72;100.00;52640.44;6275666;22;19918;-70
2023/08/29 09:09:16;;;;;;;;;;;;;;;-140.72;100.00;52573.50;6274641;22;20376;-69
2023/08/29 09:11:42;;;;;;;;;;;;;;;-140.72;100.00;52589.72;6272464;22;19942;-69
2023/08/29 09:14:07;;;;;;;;;;;;;;;-140.72;100.00;52569.44;6274986;22;19911;-69
2023/08/29 09:16:34;;;;;;;;;;;;;;;-140.72;100.00;52571.47;6276524;22;20336;-69
2023/08/29 09:19:01;;;;;;;;;;;;;;;-140.72;100.00;52581.59;6277587;22;19912;-68
2023/08/29 09:21:26;;;;;;;;;;;;;;;-140.72;100.00;52561.31;6274579;22;19911;-69
2023/08/29 09:23:52;;;;;;;;;;;;;;;-140.72;100.00;52524.78;6278045;22;19911;-69
2023/08/29 09:26:18;;;;;;;;;;;;;;;-140.72;100.00;52536.97;6276662;22;19941;-69
2023/08/29 09:28:43;;;;;;;;;;;;;;;-140.72;100.00;52593.78;6275818;22;19912;-69
2023/08/29 09:31:10;;;;;;;;;;;;;;;-140.72;100.00;52536.97;6275298;22;19911;-69
2023/08/29 09:33:36;;;;;;;;;;;;;;;-140.72;100.00;52524.78;6278693;22;20244;-70
2023/08/29 09:36:02;;;;;;;;;;;;;;;-140.72;100.00;52510.59;6302836;22;19921;-69
2023/08/29 09:38:35;;;;;;;;;;;;;;;-140.72;100.00;52549.13;6277974;22;19915;-69
2023/08/29 09:41:01;;;;;;;;;;;;;;;-140.72;100.00;52541.03;6276825;22;20275;-69
2023/08/29 09:43:27;;;;;;;;;;;;;;;-140.72;100.00;52557.25;6276332;22;19941;-69
2023/08/29 09:45:52;;;;;;;;;;;;;;;-140.72;100.00;52573.50;6277787;22;20246;-69
2023/08/29 09:48:18;;;;;;;;;;;;;;;-140.72;100.00;52561.31;6300667;22;20236;-69
2023/08/29 09:50:44;;;;;;;;;;;;;;;-140.72;100.00;52569.44;6275694;22;19919;-70
2023/08/29 09:53:09;;;;;;;;;;;;;;;-140.72;100.00;52547.09;6278488;22;19953;-69
2023/08/29 09:55:45;;;;;;;;;;;;;;;-140.72;100.00;52563.34;6279478;22;19915;-68
2023/08/29 09:58:11;;;;;;;;;;;;;;;-140.72;100.00;52524.78;6277945;22;19911;-70
2023/08/29 10:00:37;;;;;;;;;;;;;;;-140.72;100.00;52449.72;6276651;22;20404;-70
2023/08/29 10:03:05;;;;;;;;;;;;;;;-140.72;100.00;52378.69;6275313;22;20360;-69
2023/08/29 10:05:33;;;;;;;;;;;;;;;-140.72;100.00;52295.50;6277734;22;19911;-69
2023/08/29 10:08:00;;;;;;;;;;;;;;;-140.72;38.06;52246.78;6275432;22;19911;-69
2023/08/29 10:10:26;;;;;;;;;;;;;;;-140.72;0.00;52226.50;6275040;22;20328;-70
2023/08/29 10:12:53;;;;;;;;;;;;;;;-140.72;0.00;52159.56;6301061;22;19918;-68
2023/08/29 10:15:20;;;;;;;;;;;;;;;-140.72;0.00;52151.44;6299927;22;19934;-69
2023/08/29 10:17:46;;;;;;;;;;;;;;;-140.72;0.00;52094.63;6275442;22;20328;-68
2023/08/29 10:20:12;;;;;;;;;;;;;;;-140.72;0.00;52088.53;6276560;22;19934;-69
2023/08/29 10:22:39;;;;;;;;;;;;;;;-140.72;0.00;52155.50;6277673;22;19919;-68
2023/08/29 10:25:04;;;;;;;;;;;;;;;-140.72;0.00;52224.47;6276403;22;19943;-69
2023/08/29 10:27:33;;;;;;;;;;;;;;;-140.72;0.00;52285.34;6275918;22;19937;-69
2023/08/29 10:30:01;;;;;;;;;;;;;;;-140.72;0.00;52342.16;6302375;22;19967;-69
2023/08/29 10:32:27;;;;;;;;;;;;;;;-140.72;0.00;52342.16;6274826;22;20295;-68
2023/08/29 10:34:52;;;;;;;;;;;;;;;-140.72;0.00;52271.16;6300263;22;19922;-69
2023/08/29 10:37:18;;;;;;;;;;;;;;;-140.72;0.00;52265.06;6276531;22;19915;-68
2023/08/29 10:39:44;;;;;;;;;;;;;;;-140.72;0.00;52185.94;6275400;22;19916;-69
2023/08/29 10:42:12;;;;;;;;;;;;;;;-140.72;0.00;52208.25;6276938;22;19918;-68
2023/08/29 10:44:40;;;;;;;;;;;;;;;-140.72;0.00;52185.94;6278092;22;19962;-69
2023/08/29 10:47:27;;;;;;;;;;;;;;;-140.72;0.00;52254.91;6275545;22;19911;-68
2023/08/29 10:49:57;;;;;;;;;;;;;;;-140.72;0.00;52258.97;6276526;22;19917;-69
2023/08/29 10:52:22;;;;;;;;;;;;;;;-140.72;0.00;52309.69;6277876;22;19919;-69
2023/08/29 10:54:48;;;;;;;;;;;;;;;-140.72;0.00;52370.56;6300776;22;19911;-69
2023/08/29 10:57:27;;;;;;;;;;;;;;;-140.72;0.00;52380.72;6276453;22;19911;-67
2023/08/29 10:59:53;;;;;;;;;;;;;;;-140.72;0.00;52421.28;6273809;22;19911;-69
2023/08/29 11:02:32;;;;;;;;;;;;;;;-140.72;0.00;52449.72;6276583;22;19918;-68
2023/08/29 11:05:03;;;;;;;;;;;;;;;-140.72;0.00;52476.09;6301037;22;19919;-69
2023/08/29 11:07:28;;;;;;;;;;;;;;;-140.72;0.00;52478.13;6277747;22;19912;-69
2023/08/29 11:10:29;;;;;;;;;;;;;;;-140.72;0.00;52516.66;6277169;22;19913;-69
2023/08/29 11:13:06;;;;;;;;;;;;;;;-140.72;0.00;52512.59;6156916;23;19914;-69
2023/08/29 11:15:49;;;;;;;;;;;;;;;-140.72;0.00;52492.31;6264186;22;19934;-73
2023/08/29 11:18:32;;;;;;;;;;;;;;;-140.72;0.00;52545.06;6274642;22;20290;-69
2023/08/29 11:20:57;;;;;;;;;;;;;;;-140.72;0.00;52494.34;6276377;22;19923;-68
2023/08/29 11:23:23;;;;;;;;;;;;;;;-140.72;0.00;52482.16;6275374;22;19912;-68
2023/08/29 11:25:49;;;;;;;;;;;;;;;-140.72;0.00;52528.84;6272483;22;19915;-69
2023/08/29 11:28:14;;;;;;;;;;;;;;;-140.72;0.00;52498.41;6276808;22;19915;-68
2023/08/29 11:30:40;;;;;;;;;;;;;;;-140.72;0.00;52510.59;6275666;22;20012;-68
2023/08/29 11:33:05;;;;;;;;;;;;;;;-140.72;0.00;52581.59;6300416;22;19911;-69
2023/08/29 11:35:31;;;;;;;;;;;;;;;-140.72;0.00;52534.94;6274908;22;19915;-68
2023/08/29 11:37:57;;;;;;;;;;;;;;;-140.72;0.00;52518.69;6275833;22;19922;-68
2023/08/29 11:40:23;;;;;;;;;;;;;;;-140.72;0.00;52532.91;6273974;22;19999;-69
2023/08/29 11:42:48;;;;;;;;;;;;;;;-140.72;0.00;52514.63;6273353;22;19951;-68
2023/08/29 11:45:16;;;;;;;;;;;;;;;-140.72;0.00;52516.66;6274113;22;19934;-69
2023/08/29 11:47:42;;;;;;;;;;;;;;;-140.72;0.00;52516.66;6275536;22;19951;-69
2023/08/29 11:50:07;;;;;;;;;;;;;;;-140.72;0.00;52561.31;6274394;22;19918;-69
2023/08/29 11:52:33;;;;;;;;;;;;;;;-140.72;0.00;52524.78;6275603;22;19911;-69
2023/08/29 11:55:00;;;;;;;;;;;;;;;-140.72;0.00;52555.22;6273874;22;20347;-69
2023/08/29 11:57:28;;;;;;;;;;;;;;;-140.72;0.00;52549.13;6275530;22;19911;-69
2023/08/29 11:59:54;;;;;;;;;;;;;;;-140.72;0.00;52520.72;6274103;22;20269;-69
2023/08/29 12:02:21;;;;;;;;;;;;;;;-140.72;0.00;52539.00;6275545;22;19919;-69
2023/08/29 12:04:55;;;;;;;;;;;;;;;-140.72;0.00;52518.69;6274643;22;19918;-69
2023/08/29 12:07:20;;;;;;;;;;;;;;;-140.72;0.00;52545.06;6274326;22;20320;-69
2023/08/29 12:09:46;;;;;;;;;;;;;;;-140.72;0.00;52545.06;6275472;22;19921;-69
2023/08/29 12:12:27;;;;;;;;;;;;;;;-140.72;0.00;52543.03;6276195;22;19912;-69
2023/08/29 12:14:52;;;;;;;;;;;;;;;-140.72;0.00;52593.78;6275988;22;19938;-69
2023/08/29 12:17:18;;;;;;;;;;;;;;;-140.72;0.00;52549.13;6275758;22;20334;-69